Aeroporto :
LOGIN :

Iscrizione | Disclaimer

   EN    FR    IT 

 










Sommario :    VFR   VFR Marginale   IFR   IFR Intensivo   IFR Molto Intensivo
Visibilità : 
Base nubi : 
>= 8 km
>= 3000ft
5 / 8 km
1000 / 3000 ft
1500m / 5 km
500 / 1000 ft
800 / 1500m
200 / 500 ft
< 800m
< 200 ft
Simboli :   Temporali  Nebbia  Neve Forte  Precipitazioni Forti  Vento > 20 kt
SIGMETs :   Varie  Temporali  Ghiacco  Turbolenza  Onda orograficha  Ceneri Vulcaniche






- Altitudine del aeroporto : 17 ft
- Codice IATA : CPH


EKCH - København - Kastrup (Copenhagen)

ULTIMO METAR :
  • 200150Z AUTO 32018G29KT 290V350 9999 -RA OVC048/// 02/M06 Q1003 TEMPO 3000 -SHSN

METARs OBSOLETI :
  • 200120Z AUTO 29014KT 9999 OVC064/// 02/M05 Q1003 TEMPO 3000 -SHSN
  • 200050Z 29019KT 9999 -SHRA NSC 01/M05 Q1003 TEMPO 3000 -SHSN
  • 200020Z 30020G31KT CAVOK 01/M05 Q1002 TEMPO 3000 -SHSN
  • 192350Z AUTO 30022G35KT 290V350 9999 -RA OVC042/// 03/M05 Q1003 NOSIG
  • 192320Z AUTO 29021G31KT 9999 BKN046/// 03/M04 Q1002 NOSIG

TAF TAF EKCH
Valido dal 20 a 00 ore il 21 a 00 ore UTC


192309Z 2000/2024 31025G38KT 9999 SCT030
TEMPO 2000/2018 30022KT 2000 SHSN BKN020CB
BECMG 2018/2020 32015KT



MetMap, La meteo Aeronautica in un colpo d'occhio ! - Copyright ORBIFLY Dicembre 2007 - Disclaimer

ORBIFLY MET'MAP TEAM :

Programmazione e sviluppo : Alexandra Zaïnal
Concezione : Baudouin d'Aumeries
Aiuto per la programmazione : Marc-Olivier Méhu
Supporto tecnico e logistico : Manuel Goepfert
Aiuto per la traduzione : Arnaldo La Scala

Contatto : metmap@orbifly.com




FONTI E CREDITI :

   NOAA